Time;durP1;ratioP1;P1;durP2;ratioP2;P2;SDS_P1;SDS_P2;PMS_P1;PMS_P2;Temp;Humidity;BMP_temperature;BMP_pressure;BME280_temperature;BME280_humidity;BME280_pressure;Samples;Min_cycle;Max_cycle;Signal;HPM_P1;HPM_P2
2023/11/28 05:07:53;;;;;;;2.33;1.20;;;;;;;;;;7640391;19;20365;-72
2023/11/28 05:10:26;;;;;;;1.90;1.35;;;;;;;;;;7634297;19;20018;-72
2023/11/28 05:12:59;;;;;;;1.77;1.40;;;;;;;;;;7636213;19;20843;-72
2023/11/28 05:15:32;;;;;;;3.08;1.52;;;;;;;;;;7631500;19;20017;-71
2023/11/28 05:18:05;;;;;;;1.10;0.98;;;;;;;;;;7639059;19;20022;-73
2023/11/28 05:20:39;;;;;;;1.70;1.38;;;;;;;;;;7628744;19;20097;-70
2023/11/28 05:23:12;;;;;;;11.67;5.63;;;;;;;;;;7628173;19;20052;-73
2023/11/28 05:25:45;;;;;;;1.58;1.20;;;;;;;;;;7621773;19;20293;-70
2023/11/28 05:28:18;;;;;;;;;;;;;;;;;;7633259;19;20006;-71
2023/11/28 05:30:51;;;;;;;0.90;0.65;;;;;;;;;;7640622;19;19978;-73
2023/11/28 05:33:24;;;;;;;1.17;0.98;;;;;;;;;;7633773;19;20019;-73
2023/11/28 05:35:57;;;;;;;1.63;1.10;;;;;;;;;;7641886;19;20006;-72
2023/11/28 05:38:30;;;;;;;1.77;1.17;;;;;;;;;;7641499;19;20018;-71
2023/11/28 05:41:03;;;;;;;1.50;1.20;;;;;;;;;;7636612;19;20018;-73
2023/11/28 05:43:37;;;;;;;1.23;0.93;;;;;;;;;;7628017;19;22515;-72
2023/11/28 05:46:10;;;;;;;3.80;2.03;;;;;;;;;;7626034;19;20057;-71
2023/11/28 05:48:43;;;;;;;8.95;3.70;;;;;;;;;;7636584;19;20053;-72
2023/11/28 05:51:17;;;;;;;16.38;5.15;;;;;;;;;;7644459;19;20022;-74
2023/11/28 05:53:50;;;;;;;25.02;8.43;;;;;;;;;;7622863;19;20642;-72
2023/11/28 05:56:24;;;;;;;;;;;;;;;;;;7632455;19;20012;-72
2023/11/28 05:58:57;;;;;;;19.58;5.75;;;;;;;;;;7631051;19;20502;-72
2023/11/28 06:01:30;;;;;;;18.52;5.93;;;;;;;;;;7622613;19;20021;-72
2023/11/28 06:04:04;;;;;;;4.90;2.00;;;;;;;;;;7614848;19;20074;-71
2023/11/28 06:06:37;;;;;;;18.85;7.00;;;;;;;;;;7633930;19;20598;-72
2023/11/28 06:09:10;;;;;;;3.03;1.37;;;;;;;;;;7634395;19;20620;-71
2023/11/28 06:11:43;;;;;;;2.37;1.47;;;;;;;;;;7640962;19;20497;-73
2023/11/28 06:14:16;;;;;;;4.72;1.05;;;;;;;;;;7624512;19;20293;-72
2023/11/28 06:16:50;;;;;;;1.13;1.00;;;;;;;;;;7618056;19;20015;-72
2023/11/28 06:19:24;;;;;;;2.33;1.00;;;;;;;;;;7581570;19;20014;-73
2023/11/28 06:21:57;;;;;;;3.97;1.77;;;;;;;;;;7568787;19;20102;-72
2023/11/28 06:24:30;;;;;;;1.50;1.02;;;;;;;;;;7590679;19;20471;-72
2023/11/28 06:27:03;;;;;;;5.28;0.82;;;;;;;;;;7573429;19;20395;-72
2023/11/28 06:29:36;;;;;;;3.33;1.95;;;;;;;;;;7583450;19;20015;-71
2023/11/28 06:32:09;;;;;;;3.33;1.13;;;;;;;;;;7586078;19;20843;-71
2023/11/28 06:34:42;;;;;;;4.45;1.38;;;;;;;;;;7580889;19;20019;-72
2023/11/28 06:37:15;;;;;;;1.05;0.77;;;;;;;;;;7567797;19;20049;-73
2023/11/28 06:39:48;;;;;;;1.05;0.82;;;;;;;;;;7564956;19;21123;-72
2023/11/28 06:42:21;;;;;;;0.70;0.70;;;;;;;;;;7587563;19;20021;-73
2023/11/28 06:44:54;;;;;;;1.58;1.20;;;;;;;;;;7603542;19;20015;-73
2023/11/28 06:47:26;;;;;;;1.38;1.20;;;;;;;;;;7587465;19;20590;-73
2023/11/28 06:49:59;;;;;;;0.93;0.83;;;;;;;;;;7585292;19;20010;-72
2023/11/28 06:52:36;;;;;;;;;;;;;;;;;;7602799;19;20052;-70
2023/11/28 06:55:09;;;;;;;0.65;0.63;;;;;;;;;;7591105;19;19918;-72
2023/11/28 06:57:42;;;;;;;;;;;;;;;;;;7590558;19;20386;-71
2023/11/28 07:00:15;;;;;;;0.90;0.80;;;;;;;;;;7586418;19;20299;-71
2023/11/28 07:02:48;;;;;;;1.80;1.20;;;;;;;;;;7590796;19;20010;-71
2023/11/28 07:05:21;;;;;;;1.08;0.93;;;;;;;;;;7584405;19;20018;-70
2023/11/28 07:07:54;;;;;;;1.48;0.90;;;;;;;;;;7592155;19;20018;-71
2023/11/28 07:10:27;;;;;;;3.20;1.80;;;;;;;;;;7587328;19;20019;-71
2023/11/28 07:13:00;;;;;;;3.55;2.38;;;;;;;;;;7595082;19;20026;-71
2023/11/28 07:15:33;;;;;;;2.50;1.55;;;;;;;;;;7578048;19;20018;-71
2023/11/28 07:18:06;;;;;;;1.50;1.30;;;;;;;;;;7566369;19;20022;-71
2023/11/28 07:20:40;;;;;;;;;;;;;;;;;;7594118;19;20838;-71
2023/11/28 07:23:13;;;;;;;1.15;0.90;;;;;;;;;;7579001;19;20947;-71
2023/11/28 07:25:46;;;;;;;;;;;;;;;;;;7597276;19;20048;-71
2023/11/28 07:28:19;;;;;;;1.58;1.23;;;;;;;;;;7579395;19;19945;-71
2023/11/28 07:30:52;;;;;;;3.78;1.45;;;;;;;;;;7587090;19;20019;-71
2023/11/28 07:33:25;;;;;;;2.20;1.45;;;;;;;;;;7584639;19;21331;-71
2023/11/28 07:35:57;;;;;;;3.80;1.55;;;;;;;;;;7592964;19;20054;-71
2023/11/28 07:38:30;;;;;;;2.77;1.50;;;;;;;;;;7586206;19;20022;-71
2023/11/28 07:41:03;;;;;;;2.70;1.83;;;;;;;;;;7584446;19;20015;-71
2023/11/28 07:43:36;;;;;;;1.60;1.30;;;;;;;;;;7589761;19;20086;-71
2023/11/28 07:46:10;;;;;;;2.30;1.27;;;;;;;;;;7581699;19;20048;-70
2023/11/28 07:48:43;;;;;;;;;;;;;;;;;;7598098;19;20039;-71
2023/11/28 07:51:16;;;;;;;1.50;1.30;;;;;;;;;;7590952;19;19925;-70
2023/11/28 07:53:49;;;;;;;2.08;1.50;;;;;;;;;;7588775;19;20949;-70
2023/11/28 07:56:22;;;;;;;3.00;1.60;;;;;;;;;;7590596;19;20133;-71
2023/11/28 07:58:56;;;;;;;1.58;1.40;;;;;;;;;;7585834;19;20290;-71
2023/11/28 08:01:28;;;;;;;2.10;1.30;;;;;;;;;;7576328;19;20018;-72
2023/11/28 08:04:01;;;;;;;2.40;1.48;;;;;;;;;;7597714;19;20352;-72
2023/11/28 08:06:34;;;;;;;1.30;1.20;;;;;;;;;;7599201;19;20018;-71
2023/11/28 08:09:08;;;;;;;1.80;1.47;;;;;;;;;;7611747;19;20784;-71
2023/11/28 08:11:41;;;;;;;1.95;1.35;;;;;;;;;;7605638;19;20026;-71
2023/11/28 08:14:13;;;;;;;2.23;1.50;;;;;;;;;;7607053;19;20011;-71
2023/11/28 08:16:53;;;;;;;4.38;1.77;;;;;;;;;;7603124;19;20014;-71
2023/11/28 08:19:26;;;;;;;2.20;2.00;;;;;;;;;;7584144;19;20014;-71
2023/11/28 08:21:59;;;;;;;;;;;;;;;;;;7593484;19;20054;-71
2023/11/28 08:24:32;;;;;;;1.85;1.45;;;;;;;;;;7592487;19;19982;-71
2023/11/28 08:27:05;;;;;;;1.87;1.40;;;;;;;;;;7586017;19;21276;-71
2023/11/28 14:15:27;;;;;;;10.10;6.68;;;;;;;;;;7651159;19;20382;-72
2023/11/28 14:18:02;;;;;;;14.18;8.07;;;;;;;;;;7644204;19;20015;-70
2023/11/28 14:20:35;;;;;;;10.18;6.55;;;;;;;;;;7660128;19;20022;-72
2023/11/28 14:23:09;;;;;;;10.90;7.65;;;;;;;;;;7654440;19;20010;-71
2023/11/28 14:25:41;;;;;;;11.15;6.85;;;;;;;;;;7658205;19;20022;-72
2023/11/28 14:28:14;;;;;;;7.43;5.03;;;;;;;;;;7656372;19;20028;-72
2023/11/28 14:30:47;;;;;;;9.35;6.15;;;;;;;;;;7633441;19;20400;-71
2023/11/28 14:33:21;;;;;;;10.80;6.82;;;;;;;;;;7643287;19;20018;-71
2023/11/28 14:35:54;;;;;;;10.30;6.10;;;;;;;;;;7645378;19;20050;-73
2023/11/28 14:38:27;;;;;;;8.82;6.05;;;;;;;;;;7650956;19;20050;-73
2023/11/28 14:41:00;;;;;;;9.32;6.57;;;;;;;;;;7649894;19;20642;-72
2023/11/28 14:43:33;;;;;;;9.75;6.68;;;;;;;;;;7651428;19;20081;-73
2023/11/28 14:46:06;;;;;;;11.75;7.43;;;;;;;;;;7649104;19;20018;-74
2023/11/28 14:48:39;;;;;;;10.63;7.68;;;;;;;;;;7644455;19;20014;-71
2023/11/28 14:51:13;;;;;;;11.77;7.20;;;;;;;;;;7642722;19;20014;-72
2023/11/28 14:53:46;;;;;;;10.27;6.22;;;;;;;;;;7652988;19;20015;-73
2023/11/28 14:56:19;;;;;;;8.82;6.00;;;;;;;;;;7656562;19;20541;-73
2023/11/28 14:58:52;;;;;;;8.55;5.07;;;;;;;;;;7649456;19;20062;-72
2023/11/28 15:01:25;;;;;;;6.05;5.03;;;;;;;;;;7657640;19;20027;-72
2023/11/28 15:03:59;;;;;;;7.10;5.40;;;;;;;;;;7650825;19;20014;-71
2023/11/28 15:06:32;;;;;;;10.20;5.95;;;;;;;;;;7647457;19;20101;-73
2023/11/28 15:09:06;;;;;;;7.78;5.45;;;;;;;;;;7647230;19;20492;-73
2023/11/28 15:11:38;;;;;;;7.88;5.72;;;;;;;;;;7653347;19;20102;-73
2023/11/28 15:14:23;;;;;;;12.15;6.82;;;;;;;;;;7643542;19;20018;-72
2023/11/28 15:16:56;;;;;;;16.88;8.75;;;;;;;;;;7628793;19;20017;-72
2023/11/28 15:19:29;;;;;;;10.68;7.10;;;;;;;;;;7639348;19;20010;-73
2023/11/28 15:22:02;;;;;;;14.75;8.25;;;;;;;;;;7626411;19;20268;-73
2023/11/28 15:24:36;;;;;;;8.98;6.10;;;;;;;;;;7626206;19;20026;-73
2023/11/28 15:27:09;;;;;;;;;;;;;;;;;;7602650;19;20006;-72
2023/11/28 15:29:42;;;;;;;9.93;6.85;;;;;;;;;;7622815;19;20495;-72
2023/11/28 15:32:14;;;;;;;9.73;6.30;;;;;;;;;;7612036;19;20036;-73
2023/11/28 15:34:48;;;;;;;8.57;5.75;;;;;;;;;;7615047;19;20010;-74
2023/11/28 15:37:22;;;;;;;9.18;6.78;;;;;;;;;;7616065;19;20025;-73
2023/11/28 15:39:55;;;;;;;10.57;6.28;;;;;;;;;;7613926;19;20006;-73
2023/11/28 15:42:28;;;;;;;10.07;6.47;;;;;;;;;;7616318;19;20011;-74
2023/11/28 15:45:01;;;;;;;10.47;7.13;;;;;;;;;;7622969;19;20022;-73
2023/11/28 15:47:35;;;;;;;9.95;6.80;;;;;;;;;;7620129;19;20335;-74
2023/11/28 15:50:08;;;;;;;10.05;5.18;;;;;;;;;;7623347;19;20064;-73
2023/11/28 15:52:41;;;;;;;10.93;6.80;;;;;;;;;;7607397;19;20015;-73
2023/11/28 15:55:13;;;;;;;9.10;6.40;;;;;;;;;;7611796;19;20018;-75
2023/11/28 15:57:50;;;;;;;9.55;5.95;;;;;;;;;;7621616;19;20090;-72
2023/11/28 16:00:25;;;;;;;9.13;5.68;;;;;;;;;;7617835;19;20547;-71
2023/11/28 16:02:58;;;;;;;11.10;6.35;;;;;;;;;;7611505;19;20010;-70
2023/11/28 16:05:31;;;;;;;8.70;6.10;;;;;;;;;;7604415;19;20007;-73
2023/11/28 16:08:06;;;;;;;7.90;5.90;;;;;;;;;;7614634;19;20148;-71
2023/11/28 16:10:39;;;;;;;8.13;6.07;;;;;;;;;;7617231;19;21691;-73
2023/11/28 16:13:12;;;;;;;9.30;6.38;;;;;;;;;;7611728;19;20022;-72
2023/11/28 16:15:45;;;;;;;7.28;5.75;;;;;;;;;;7615484;19;20018;-72
2023/11/28 16:18:18;;;;;;;9.57;6.43;;;;;;;;;;7617987;19;20042;-72
2023/11/28 16:20:53;;;;;;;10.25;7.55;;;;;;;;;;7621542;19;20472;-73
2023/11/28 16:23:26;;;;;;;14.52;8.05;;;;;;;;;;7622971;19;20007;-73
2023/11/28 16:26:00;;;;;;;17.95;9.38;;;;;;;;;;7614491;19;20499;-73
2023/11/28 16:28:33;;;;;;;21.23;11.02;;;;;;;;;;7621870;19;20019;-73
2023/11/28 16:31:06;;;;;;;;;;;;;;;;;;7617429;19;20507;-72
2023/11/28 16:33:39;;;;;;;11.93;7.15;;;;;;;;;;7615224;19;19940;-72
2023/11/28 16:36:12;;;;;;;12.00;7.37;;;;;;;;;;7614063;19;20029;-72
2023/11/28 16:38:45;;;;;;;11.75;7.75;;;;;;;;;;7607626;19;20014;-72
2023/11/28 16:41:18;;;;;;;11.50;8.05;;;;;;;;;;7626787;19;20006;-72
2023/11/28 16:43:51;;;;;;;12.38;8.05;;;;;;;;;;7625377;19;20034;-72
2023/11/28 16:46:24;;;;;;;12.63;7.75;;;;;;;;;;7606408;19;20017;-72
2023/11/28 16:48:58;;;;;;;11.05;7.75;;;;;;;;;;7592301;19;20064;-71
2023/11/28 16:51:31;;;;;;;13.60;9.15;;;;;;;;;;7609865;19;20110;-72
2023/11/28 16:54:05;;;;;;;12.90;8.70;;;;;;;;;;7613022;19;20015;-71
2023/11/28 16:56:37;;;;;;;;;;;;;;;;;;7597657;19;20037;-71
2023/11/28 16:59:10;;;;;;;13.85;9.57;;;;;;;;;;7600173;19;19930;-71
2023/11/28 17:01:43;;;;;;;14.30;9.65;;;;;;;;;;7601217;19;20612;-71
2023/11/28 17:04:16;;;;;;;14.02;9.27;;;;;;;;;;7595162;19;20022;-72
2023/11/28 17:06:49;;;;;;;11.65;8.18;;;;;;;;;;7602159;19;20542;-73
2023/11/28 17:09:22;;;;;;;18.08;10.55;;;;;;;;;;7611751;19;20010;-71
2023/11/28 17:11:55;;;;;;;15.35;9.85;;;;;;;;;;7606685;19;20021;-72
2023/11/28 17:14:30;;;;;;;14.90;10.13;;;;;;;;;;7598405;19;20023;-72
2023/11/28 17:17:04;;;;;;;22.23;12.20;;;;;;;;;;7600500;19;20313;-70
2023/11/28 17:19:36;;;;;;;16.52;10.35;;;;;;;;;;7601979;19;20638;-71
2023/11/28 17:22:09;;;;;;;17.07;10.53;;;;;;;;;;7615497;19;20006;-71
2023/11/28 17:24:43;;;;;;;16.73;9.68;;;;;;;;;;7590172;19;20019;-73
2023/11/28 17:27:16;;;;;;;13.18;8.88;;;;;;;;;;7599342;19;20781;-73
2023/11/28 17:29:49;;;;;;;12.90;8.93;;;;;;;;;;7595806;19;20018;-72
2023/11/28 17:32:23;;;;;;;16.48;9.88;;;;;;;;;;7593836;19;20014;-72
2023/11/28 17:34:55;;;;;;;17.08;10.32;;;;;;;;;;7602972;19;20071;-71
2023/11/28 17:37:28;;;;;;;18.50;10.27;;;;;;;;;;7601246;19;20411;-72
2023/11/28 17:40:03;;;;;;;14.32;9.48;;;;;;;;;;7606287;19;20294;-70
2023/11/28 17:42:36;;;;;;;17.80;10.45;;;;;;;;;;7597810;19;20724;-72
2023/11/28 17:45:09;;;;;;;19.08;10.57;;;;;;;;;;7594075;19;20018;-73
2023/11/28 17:51:01;;;;;;;14.57;9.38;;;;;;;;;;7583524;19;20646;-73
2023/11/28 17:53:35;;;;;;;16.48;10.02;;;;;;;;;;7609968;19;20616;-71
2023/11/28 17:56:10;;;;;;;17.00;9.65;;;;;;;;;;7589174;19;20018;-72
2023/11/28 17:58:42;;;;;;;14.70;9.63;;;;;;;;;;7613923;19;20013;-72
2023/11/28 18:01:15;;;;;;;15.15;9.13;;;;;;;;;;7609134;19;20018;-73
2023/11/28 18:03:48;;;;;;;20.52;10.63;;;;;;;;;;7608824;19;20023;-73
2023/11/28 18:06:21;;;;;;;16.92;10.43;;;;;;;;;;7603822;19;20025;-73
2023/11/28 18:08:53;;;;;;;21.00;10.82;;;;;;;;;;7594012;19;20010;-73
2023/11/28 18:11:26;;;;;;;16.13;10.10;;;;;;;;;;7601205;19;20041;-74
2023/11/28 18:14:00;;;;;;;16.90;11.32;;;;;;;;;;7617223;19;20006;-75
2023/11/28 18:16:32;;;;;;;17.20;10.68;;;;;;;;;;7618400;19;20022;-74
2023/11/28 18:19:05;;;;;;;14.40;9.95;;;;;;;;;;7614479;19;20516;-73
2023/11/28 18:21:38;;;;;;;16.17;10.38;;;;;;;;;;7616194;19;20035;-74
2023/11/28 18:24:11;;;;;;;16.23;10.47;;;;;;;;;;7600754;19;20010;-72
2023/11/28 18:26:43;;;;;;;15.82;10.70;;;;;;;;;;7570248;19;20022;-73
2023/11/28 18:29:16;;;;;;;18.87;11.07;;;;;;;;;;7573897;19;20038;-72
2023/11/28 18:31:49;;;;;;;21.00;11.80;;;;;;;;;;7568296;19;20038;-72
2023/11/28 18:34:22;;;;;;;21.58;12.32;;;;;;;;;;7577460;19;20454;-73
2023/11/28 18:36:55;;;;;;;23.38;11.85;;;;;;;;;;7575548;19;20025;-72
2023/11/28 18:39:28;;;;;;;17.60;11.30;;;;;;;;;;7556892;19;20018;-72
2023/11/28 18:42:01;;;;;;;18.60;11.55;;;;;;;;;;7573030;19;20044;-72
2023/11/28 18:44:34;;;;;;;19.00;11.90;;;;;;;;;;7556376;19;20022;-72
2023/11/28 18:47:07;;;;;;;25.43;14.03;;;;;;;;;;7575317;19;20283;-72
2023/11/28 18:49:41;;;;;;;21.52;12.90;;;;;;;;;;7582499;19;20017;-72
2023/11/28 18:52:14;;;;;;;18.80;11.73;;;;;;;;;;7583270;19;20591;-73
2023/11/28 18:54:46;;;;;;;20.27;12.77;;;;;;;;;;7587829;19;20381;-71
2023/11/28 18:57:19;;;;;;;21.48;12.88;;;;;;;;;;7553081;19;20650;-71
2023/11/28 18:59:52;;;;;;;23.23;13.80;;;;;;;;;;7553412;19;20109;-71
2023/11/28 19:02:26;;;;;;;27.23;15.60;;;;;;;;;;7588944;19;20022;-71
2023/11/28 19:04:59;;;;;;;26.20;15.75;;;;;;;;;;7562500;19;20014;-72
2023/11/28 19:07:32;;;;;;;27.88;16.73;;;;;;;;;;7550142;19;20044;-72
2023/11/28 19:10:05;;;;;;;26.60;15.48;;;;;;;;;;7588672;19;20018;-71
2023/11/28 19:12:38;;;;;;;23.52;13.93;;;;;;;;;;7587991;19;20540;-71
2023/11/28 19:15:11;;;;;;;27.00;15.37;;;;;;;;;;7588674;19;20530;-71
2023/11/28 19:17:44;;;;;;;21.48;12.93;;;;;;;;;;7597712;19;20500;-72
2023/11/28 19:20:17;;;;;;;24.35;13.55;;;;;;;;;;7581384;19;20048;-72
2023/11/28 19:22:50;;;;;;;21.13;11.70;;;;;;;;;;7584931;19;20026;-72
2023/11/28 19:25:25;;;;;;;19.67;11.48;;;;;;;;;;7579251;19;20074;-72
2023/11/28 19:27:58;;;;;;;19.92;11.63;;;;;;;;;;7585863;19;20457;-71
2023/11/28 19:30:31;;;;;;;23.83;12.95;;;;;;;;;;7569143;19;20018;-71
2023/11/28 19:33:05;;;;;;;19.35;11.50;;;;;;;;;;7587332;19;20010;-72
2023/11/28 19:35:38;;;;;;;22.10;12.73;;;;;;;;;;7579303;19;20410;-72
2023/11/28 19:38:11;;;;;;;20.25;12.70;;;;;;;;;;7593571;19;20931;-71
2023/11/28 19:40:45;;;;;;;23.48;13.82;;;;;;;;;;7585870;19;20022;-71
2023/11/28 19:43:19;;;;;;;22.60;12.07;;;;;;;;;;7593895;19;21176;-71
2023/11/28 19:45:51;;;;;;;21.67;13.25;;;;;;;;;;7577479;19;20065;-72
2023/11/28 19:48:24;;;;;;;20.67;12.55;;;;;;;;;;7597666;19;20391;-71
2023/11/28 19:50:57;;;;;;;19.27;12.13;;;;;;;;;;7558987;19;20595;-71
2023/11/28 19:53:30;;;;;;;22.17;12.93;;;;;;;;;;7589013;19;20023;-72
2023/11/28 19:56:05;;;;;;;20.13;12.70;;;;;;;;;;7576988;19;20441;-72
2023/11/28 19:58:39;;;;;;;21.65;12.90;;;;;;;;;;7593595;19;20031;-71
2023/11/28 20:01:13;;;;;;;25.80;13.10;;;;;;;;;;7597720;19;20007;-72
2023/11/28 20:03:49;;;;;;;20.60;12.15;;;;;;;;;;7583549;19;20033;-72
2023/11/28 20:06:23;;;;;;;22.05;13.25;;;;;;;;;;7580925;19;20010;-72
2023/11/28 20:08:59;;;;;;;23.25;13.32;;;;;;;;;;7583243;19;20026;-72
2023/11/28 20:11:36;;;;;;;25.50;14.20;;;;;;;;;;7593594;19;20436;-72
2023/11/28 20:14:11;;;;;;;30.15;15.57;;;;;;;;;;7564931;19;20032;-72
2023/11/28 20:16:45;;;;;;;24.80;14.23;;;;;;;;;;7585001;19;25417;-72
2023/11/28 20:19:17;;;;;;;22.88;13.40;;;;;;;;;;7582848;19;20353;-71
2023/11/28 20:21:51;;;;;;;22.17;13.13;;;;;;;;;;7581243;19;20479;-72
2023/11/28 20:24:24;;;;;;;24.65;13.73;;;;;;;;;;7588569;19;21506;-72
2023/11/28 20:26:57;;;;;;;23.73;12.68;;;;;;;;;;7562627;19;20026;-71
2023/11/28 20:29:32;;;;;;;30.23;15.38;;;;;;;;;;7579418;19;20029;-72
2023/11/28 20:32:10;;;;;;;33.35;17.73;;;;;;;;;;7585819;19;20873;-73
2023/11/28 20:34:43;;;;;;;28.30;15.00;;;;;;;;;;7584145;19;20026;-72
2023/11/28 20:37:16;;;;;;;30.85;16.20;;;;;;;;;;7592837;19;20023;-73
2023/11/28 20:39:51;;;;;;;35.28;18.40;;;;;;;;;;7596867;19;20011;-73
